createdAt,value
2023-02-27T00:00:16.949Z,52.64
2023-02-27T00:01:07.061Z,52.83
2023-02-27T00:01:57.094Z,52.60
2023-02-27T00:02:47.203Z,52.80
2023-02-27T00:03:37.251Z,52.87
2023-02-27T00:04:27.271Z,52.86
2023-02-27T00:05:17.290Z,52.93
2023-02-27T00:06:07.345Z,52.50
2023-02-27T00:06:57.367Z,52.74
2023-02-27T00:07:47.464Z,52.90
2023-02-27T00:08:37.524Z,52.62
2023-02-27T00:09:27.527Z,52.83
2023-02-27T00:10:17.556Z,52.69
2023-02-27T00:11:07.675Z,53.00
2023-02-27T00:11:57.681Z,52.84
2023-02-27T00:12:47.725Z,53.13
2023-02-27T00:13:37.753Z,53.18
2023-02-27T00:14:27.845Z,53.10
2023-02-27T00:15:17.875Z,52.78
2023-02-27T00:16:08.014Z,53.07
2023-02-27T00:16:57.983Z,53.45
2023-02-27T00:17:48.052Z,53.10
2023-02-27T00:18:38.082Z,53.00
2023-02-27T00:19:28.161Z,53.16
2023-02-27T00:20:18.187Z,52.54
2023-02-27T00:21:08.297Z,52.93
2023-02-27T00:21:58.329Z,52.82
2023-02-27T00:22:48.409Z,52.97
2023-02-27T00:23:38.429Z,52.88
2023-02-27T00:24:28.684Z,52.53
2023-02-27T00:25:18.712Z,52.81
2023-02-27T00:26:08.804Z,52.81
2023-02-27T00:26:58.870Z,52.83
2023-02-27T00:27:48.917Z,52.68
2023-02-27T00:28:38.951Z,53.09
2023-02-27T00:29:29.036Z,52.95
2023-02-27T00:30:19.046Z,52.79
2023-02-27T00:31:09.260Z,53.07
2023-02-27T00:31:59.292Z,53.16
2023-02-27T00:32:49.268Z,52.97
2023-02-27T00:33:39.510Z,52.92
2023-02-27T00:34:29.586Z,53.03
2023-02-27T00:35:19.610Z,53.34
2023-02-27T00:36:09.676Z,52.89
2023-02-27T00:36:59.700Z,52.78
2023-02-27T00:37:49.779Z,53.18
2023-02-27T00:38:39.802Z,53.24
2023-02-27T00:39:29.883Z,53.27
2023-02-27T00:40:19.915Z,52.95
2023-02-27T00:41:10.020Z,53.11
2023-02-27T00:42:00.041Z,53.24
2023-02-27T00:42:50.359Z,52.74
2023-02-27T00:43:40.362Z,52.81
2023-02-27T00:44:30.447Z,52.42
2023-02-27T00:45:20.469Z,52.93
2023-02-27T00:46:10.632Z,52.91
2023-02-27T00:47:00.608Z,52.94
2023-02-27T00:47:50.674Z,53.22
2023-02-27T00:48:40.691Z,53.20
2023-02-27T00:49:30.738Z,52.98
2023-02-27T00:50:20.768Z,52.96
2023-02-27T00:51:10.892Z,52.99
2023-02-27T00:52:00.872Z,52.81
2023-02-27T00:52:50.951Z,52.92
2023-02-27T00:53:40.980Z,53.06
2023-02-27T00:54:31.056Z,52.94
2023-02-27T00:55:21.080Z,52.99
2023-02-27T00:56:11.186Z,52.80
2023-02-27T00:57:01.206Z,53.13
2023-02-27T00:57:51.354Z,53.28
2023-02-27T00:58:41.620Z,53.17
2023-02-27T00:59:31.672Z,53.08
2023-02-27T01:00:21.693Z,52.74
2023-02-27T01:01:12.123Z,52.82
2023-02-27T01:02:02.066Z,53.25
2023-02-27T01:02:52.226Z,53.12
2023-02-27T01:03:42.458Z,53.03
2023-02-27T01:04:32.560Z,52.99
2023-02-27T01:05:22.576Z,52.82
2023-02-27T01:06:12.673Z,52.60
2023-02-27T01:07:02.705Z,52.73
2023-02-27T01:07:52.785Z,53.07
2023-02-27T01:08:42.818Z,52.57
2023-02-27T01:09:32.891Z,52.56
2023-02-27T01:10:22.968Z,52.78
2023-02-27T01:11:13.070Z,52.67
2023-02-27T01:12:03.088Z,52.67
2023-02-27T01:12:53.436Z,52.67
2023-02-27T01:13:43.450Z,52.66
2023-02-27T01:14:33.551Z,52.53
2023-02-27T01:15:23.558Z,52.72
2023-02-27T01:16:13.702Z,52.70
2023-02-27T01:17:03.666Z,52.45
2023-02-27T01:17:53.716Z,52.38
2023-02-27T01:18:43.744Z,52.45
2023-02-27T01:19:33.778Z,52.68
2023-02-27T01:20:23.803Z,52.61
2023-02-27T01:21:13.892Z,52.72
2023-02-27T01:22:03.922Z,52.70
2023-02-27T01:22:54.067Z,52.65
2023-02-27T01:23:44.012Z,52.82
2023-02-27T01:24:34.083Z,52.54
2023-02-27T01:25:24.113Z,52.77
2023-02-27T01:26:14.221Z,52.78
2023-02-27T01:27:04.252Z,52.82
2023-02-27T01:27:54.290Z,52.59
2023-02-27T01:28:44.358Z,52.62
2023-02-27T01:29:34.368Z,52.57
2023-02-27T01:30:24.456Z,52.46
2023-02-27T01:31:14.579Z,52.52
2023-02-27T01:32:04.623Z,52.74
2023-02-27T01:32:54.579Z,52.73
2023-02-27T01:33:44.607Z,52.78
2023-02-27T01:34:34.688Z,52.41
2023-02-27T01:35:25.011Z,52.63
2023-02-27T01:36:15.103Z,52.75
2023-02-27T01:37:05.150Z,52.67
2023-02-27T01:37:55.460Z,52.91
2023-02-27T01:38:45.531Z,52.71
2023-02-27T01:39:35.601Z,52.89
2023-02-27T01:40:25.891Z,52.77
2023-02-27T01:41:16.026Z,52.57
2023-02-27T01:42:06.016Z,52.63
2023-02-27T01:42:56.364Z,52.60
2023-02-27T01:43:46.380Z,52.83
2023-02-27T01:44:36.459Z,52.40
2023-02-27T01:45:26.491Z,52.91
2023-02-27T01:46:16.608Z,52.86
2023-02-27T01:47:06.615Z,52.93
2023-02-27T01:47:56.690Z,52.72
2023-02-27T01:48:46.764Z,52.62
2023-02-27T01:49:36.840Z,52.82
2023-02-27T01:50:26.900Z,52.46
2023-02-27T01:51:17.018Z,52.71
2023-02-27T01:52:07.149Z,52.69
2023-02-27T01:52:57.235Z,52.85
2023-02-27T01:53:47.296Z,52.84
2023-02-27T01:54:37.602Z,52.58
2023-02-27T01:55:27.652Z,52.81
2023-02-27T01:56:17.747Z,52.80
2023-02-27T01:57:08.048Z,52.78
2023-02-27T01:57:58.117Z,52.96
2023-02-27T01:58:48.156Z,52.77
2023-02-27T01:59:38.221Z,52.84
2023-02-27T02:00:28.255Z,52.64
2023-02-27T02:01:18.503Z,52.66
2023-02-27T02:02:08.472Z,52.76
2023-02-27T02:02:58.470Z,52.79
2023-02-27T02:03:48.501Z,52.83
2023-02-27T02:04:38.555Z,52.48
2023-02-27T02:05:28.589Z,52.41
2023-02-27T02:06:18.645Z,52.76
2023-02-27T02:07:08.688Z,52.77
2023-02-27T02:07:58.751Z,52.56
2023-02-27T02:08:48.789Z,52.63
2023-02-27T02:09:38.828Z,52.64
2023-02-27T02:10:28.858Z,52.61
2023-02-27T02:11:18.950Z,52.74
2023-02-27T02:12:08.992Z,52.73
2023-02-27T02:12:59.336Z,52.66
2023-02-27T02:13:49.366Z,52.86
2023-02-27T02:14:39.450Z,52.79
2023-02-27T02:15:29.477Z,52.62
2023-02-27T02:16:19.611Z,52.60
2023-02-27T02:17:09.638Z,52.89
2023-02-27T02:17:59.701Z,52.85
2023-02-27T02:18:49.731Z,53.00
2023-02-27T02:19:39.778Z,52.69
2023-02-27T02:20:29.820Z,52.88
2023-02-27T02:21:19.871Z,52.61
2023-02-27T02:22:09.902Z,52.67
2023-02-27T02:22:59.984Z,52.78
2023-02-27T02:23:50.037Z,52.75
2023-02-27T02:24:40.119Z,52.83
2023-02-27T02:25:30.156Z,52.85
2023-02-27T02:26:20.251Z,52.85
2023-02-27T02:27:10.278Z,53.03
2023-02-27T02:28:00.314Z,52.92
2023-02-27T02:28:50.559Z,52.76
2023-02-27T02:29:40.647Z,53.17
2023-02-27T02:30:30.788Z,52.84
2023-02-27T02:31:21.115Z,52.97
2023-02-27T02:32:11.162Z,53.00
2023-02-27T02:33:01.121Z,52.90
2023-02-27T02:33:51.132Z,52.81
2023-02-27T02:34:41.217Z,52.61
2023-02-27T02:35:31.248Z,52.50
2023-02-27T02:36:21.346Z,52.65
2023-02-27T02:37:11.392Z,52.80
2023-02-27T02:38:01.469Z,52.57
2023-02-27T02:38:51.541Z,52.78
2023-02-27T02:39:41.623Z,52.69
2023-02-27T02:40:31.781Z,52.65
2023-02-27T02:41:21.876Z,52.65
2023-02-27T02:42:11.906Z,52.64
2023-02-27T02:43:02.243Z,52.67
2023-02-27T02:43:52.298Z,52.87
2023-02-27T02:44:42.354Z,52.72
2023-02-27T02:45:32.378Z,52.64
2023-02-27T02:46:22.546Z,52.77
2023-02-27T02:47:12.496Z,52.82
2023-02-27T02:48:02.583Z,52.64
2023-02-27T02:48:52.683Z,52.72
2023-02-27T02:49:42.730Z,52.88
2023-02-27T02:50:32.794Z,52.69
2023-02-27T02:51:22.887Z,52.92
2023-02-27T02:52:12.901Z,53.01
2023-02-27T02:53:02.986Z,52.60
2023-02-27T02:53:53.039Z,52.80
2023-02-27T02:54:43.122Z,53.02
2023-02-27T02:55:33.322Z,52.97
2023-02-27T02:56:23.416Z,52.96
2023-02-27T02:57:13.450Z,53.05
2023-02-27T02:58:03.530Z,52.87
2023-02-27T02:58:53.551Z,52.95
2023-02-27T02:59:43.633Z,52.92
2023-02-27T03:00:33.660Z,52.91
2023-02-27T03:01:23.763Z,52.76
2023-02-27T03:02:13.789Z,52.78
2023-02-27T03:03:03.865Z,52.87
2023-02-27T03:03:53.938Z,52.65
2023-02-27T03:04:44.332Z,52.61
2023-02-27T03:05:34.229Z,52.74
2023-02-27T03:06:24.337Z,52.71
2023-02-27T03:07:14.378Z,52.77
2023-02-27T03:08:04.426Z,52.44
2023-02-27T03:08:54.457Z,52.82
2023-02-27T03:09:44.537Z,52.41
2023-02-27T03:10:34.586Z,52.84
2023-02-27T03:11:25.031Z,52.69
2023-02-27T03:12:14.705Z,52.47
2023-02-27T03:13:04.789Z,52.70
2023-02-27T03:13:55.077Z,52.62
2023-02-27T03:14:45.113Z,52.74
2023-02-27T03:15:35.191Z,52.63
2023-02-27T03:16:25.202Z,52.60
2023-02-27T03:17:15.233Z,52.56
2023-02-27T03:18:05.315Z,52.61
2023-02-27T03:18:55.348Z,52.65
2023-02-27T03:19:45.426Z,52.65
2023-02-27T03:20:35.480Z,52.84
2023-02-27T03:21:25.984Z,52.87
2023-02-27T03:22:15.608Z,53.18
2023-02-27T03:23:05.685Z,53.18
2023-02-27T03:23:55.702Z,53.04
2023-02-27T03:24:45.782Z,52.99
2023-02-27T03:25:35.806Z,52.95
2023-02-27T03:26:25.907Z,52.73
2023-02-27T03:27:15.941Z,52.94
2023-02-27T03:28:06.025Z,52.95
2023-02-27T03:28:56.044Z,53.18
2023-02-27T03:29:46.343Z,52.91
2023-02-27T03:30:36.422Z,53.12
2023-02-27T03:31:26.899Z,52.98
2023-02-27T03:32:16.579Z,52.83
2023-02-27T03:33:06.547Z,53.00
2023-02-27T03:33:56.613Z,53.03
2023-02-27T03:34:46.683Z,52.70
2023-02-27T03:35:36.746Z,53.03
2023-02-27T03:36:26.860Z,52.85
2023-02-27T03:37:16.856Z,52.89
2023-02-27T03:38:06.936Z,53.13
2023-02-27T03:38:56.964Z,53.15
2023-02-27T03:39:47.212Z,52.96
2023-02-27T03:40:37.281Z,52.82
2023-02-27T03:41:27.766Z,52.88
2023-02-27T03:42:17.389Z,53.04
2023-02-27T03:43:07.470Z,52.59
2023-02-27T03:43:57.499Z,52.74
2023-02-27T03:44:47.571Z,53.20
2023-02-27T03:45:37.646Z,52.82
2023-02-27T03:46:27.838Z,53.10
2023-02-27T03:47:17.747Z,52.61
2023-02-27T03:48:07.825Z,52.55
2023-02-27T03:48:58.084Z,52.92
2023-02-27T03:49:48.183Z,53.00
2023-02-27T03:50:38.167Z,53.30
2023-02-27T03:51:28.697Z,53.05
2023-02-27T03:52:18.294Z,52.89
2023-02-27T03:53:08.610Z,53.10
2023-02-27T03:53:58.634Z,52.75
2023-02-27T03:54:48.721Z,53.06
2023-02-27T03:55:38.775Z,52.83
2023-02-27T03:56:28.828Z,53.06
2023-02-27T03:57:18.852Z,53.01
2023-02-27T03:58:08.930Z,53.00
2023-02-27T03:58:58.970Z,52.76
2023-02-27T03:59:49.014Z,52.98
2023-02-27T04:00:39.052Z,52.83
2023-02-27T04:01:29.584Z,53.02
2023-02-27T04:02:19.476Z,52.84
2023-02-27T04:03:09.667Z,52.87
2023-02-27T04:03:59.590Z,52.81
2023-02-27T04:04:49.935Z,52.98
2023-02-27T04:05:39.967Z,52.80
2023-02-27T04:06:30.069Z,53.03
2023-02-27T04:07:20.094Z,52.95
2023-02-27T04:08:10.154Z,53.05
2023-02-27T04:09:00.164Z,52.98
2023-02-27T04:09:50.250Z,52.97
2023-02-27T04:10:40.283Z,53.02
2023-02-27T04:11:30.391Z,52.90
2023-02-27T04:12:20.428Z,52.94
2023-02-27T04:13:10.501Z,53.07
2023-02-27T04:14:00.538Z,53.02
2023-02-27T04:14:50.620Z,52.92
2023-02-27T04:15:40.660Z,52.89
2023-02-27T04:16:30.759Z,52.86
2023-02-27T04:17:20.788Z,52.60
2023-02-27T04:18:10.876Z,52.92
2023-02-27T04:19:00.897Z,53.03
2023-02-27T04:19:51.043Z,52.94
2023-02-27T04:20:41.275Z,52.79
2023-02-27T04:21:31.383Z,52.85
2023-02-27T04:22:21.423Z,52.77
2023-02-27T04:23:11.752Z,53.12
2023-02-27T04:24:01.798Z,52.83
2023-02-27T04:24:51.818Z,53.00
2023-02-27T04:25:41.858Z,53.05
2023-02-27T04:26:31.944Z,53.09
2023-02-27T04:27:21.960Z,53.08
2023-02-27T04:28:12.063Z,52.95
2023-02-27T04:29:02.084Z,52.66
2023-02-27T04:29:52.138Z,52.90
2023-02-27T04:30:42.204Z,53.08
2023-02-27T04:31:32.393Z,53.04
2023-02-27T04:32:22.393Z,52.79
2023-02-27T04:33:12.329Z,52.83
2023-02-27T04:34:02.386Z,52.59
2023-02-27T04:34:52.438Z,53.08
2023-02-27T04:35:42.471Z,52.76
2023-02-27T04:36:32.625Z,52.64
2023-02-27T04:37:22.654Z,52.99
2023-02-27T04:38:12.706Z,52.84
2023-02-27T04:39:02.745Z,52.93
2023-02-27T04:39:52.841Z,52.82
2023-02-27T04:40:42.847Z,53.21
2023-02-27T04:41:32.994Z,52.72
2023-02-27T04:42:22.982Z,53.09
2023-02-27T04:43:13.070Z,52.95
2023-02-27T04:44:03.100Z,53.11
2023-02-27T04:44:53.177Z,52.61
2023-02-27T04:45:43.512Z,52.85
2023-02-27T04:46:33.526Z,52.75
2023-02-27T04:47:23.552Z,53.20
2023-02-27T04:48:13.670Z,53.23
2023-02-27T04:49:03.661Z,53.04
2023-02-27T04:49:53.709Z,53.18
2023-02-27T04:50:43.748Z,53.17
2023-02-27T04:51:33.815Z,52.89
2023-02-27T04:52:23.924Z,53.19
2023-02-27T04:53:14.018Z,52.84
2023-02-27T04:54:04.043Z,53.01
2023-02-27T04:54:54.131Z,52.93
2023-02-27T04:55:44.185Z,52.76
2023-02-27T04:56:34.217Z,52.96
2023-02-27T04:57:24.244Z,52.93
2023-02-27T04:58:14.322Z,52.99
2023-02-27T04:59:04.410Z,53.23
2023-02-27T04:59:54.448Z,52.86
2023-02-27T05:00:44.479Z,53.07
2023-02-27T05:01:34.627Z,52.96
2023-02-27T05:02:24.733Z,52.94
2023-02-27T05:03:14.661Z,52.80
2023-02-27T05:04:04.690Z,52.95
2023-02-27T05:04:54.776Z,52.90
2023-02-27T05:05:44.841Z,53.16
2023-02-27T05:06:34.941Z,52.93
2023-02-27T05:07:24.970Z,52.81
2023-02-27T05:08:15.313Z,52.87
2023-02-27T05:09:05.348Z,52.86
2023-02-27T05:09:55.438Z,52.57
2023-02-27T05:10:45.466Z,52.61
2023-02-27T05:11:35.556Z,52.75
2023-02-27T05:12:25.560Z,52.85
2023-02-27T05:13:15.631Z,52.84
2023-02-27T05:14:05.667Z,52.73
2023-02-27T05:14:55.762Z,52.73
2023-02-27T05:15:45.866Z,53.18
2023-02-27T05:16:35.908Z,53.18
2023-02-27T05:17:25.914Z,53.32
2023-02-27T05:18:16.046Z,53.04
2023-02-27T05:19:06.021Z,53.31
2023-02-27T05:19:56.076Z,53.26
2023-02-27T05:20:46.116Z,53.17
2023-02-27T05:21:36.253Z,52.87
2023-02-27T05:22:26.196Z,52.93
2023-02-27T05:23:16.276Z,53.00
2023-02-27T05:24:06.313Z,53.09
2023-02-27T05:24:56.389Z,52.81
2023-02-27T05:25:46.434Z,52.68
2023-02-27T05:26:36.519Z,52.74
2023-02-27T05:27:26.572Z,52.75
2023-02-27T05:28:16.622Z,52.87
2023-02-27T05:29:06.664Z,52.90
2023-02-27T05:29:56.753Z,52.99
2023-02-27T05:30:47.032Z,53.00
2023-02-27T05:31:37.178Z,52.87
2023-02-27T05:32:27.261Z,52.48
2023-02-27T05:33:17.218Z,52.91
2023-02-27T05:34:07.260Z,52.69
2023-02-27T05:34:57.301Z,52.91
2023-02-27T05:35:47.392Z,52.97
2023-02-27T05:36:37.415Z,52.96
2023-02-27T05:37:27.495Z,52.99
2023-02-27T05:38:17.603Z,52.98
2023-02-27T05:39:07.636Z,53.30
2023-02-27T05:39:58.058Z,53.42
2023-02-27T05:40:48.015Z,53.30
2023-02-27T05:41:38.075Z,53.26
2023-02-27T05:42:28.139Z,53.25
2023-02-27T05:43:18.150Z,53.32
2023-02-27T05:44:08.187Z,53.27
2023-02-27T05:44:58.231Z,53.23
2023-02-27T05:45:48.285Z,53.33
2023-02-27T05:46:38.375Z,53.32
2023-02-27T05:47:28.447Z,53.27
2023-02-27T05:48:19.722Z,53.29
2023-02-27T05:49:08.507Z,53.16
2023-02-27T05:49:58.572Z,52.94
2023-02-27T05:50:48.585Z,53.07
2023-02-27T05:51:38.703Z,53.00
2023-02-27T05:52:28.690Z,53.11
2023-02-27T05:53:18.821Z,53.17
2023-02-27T05:54:08.862Z,53.11
2023-02-27T05:54:58.896Z,52.86
2023-02-27T05:55:48.943Z,52.99
2023-02-27T05:56:38.995Z,52.85
2023-02-27T05:57:29.030Z,52.85
2023-02-27T05:58:19.137Z,53.00
2023-02-27T05:59:09.155Z,53.31
2023-02-27T05:59:59.199Z,53.23
2023-02-27T06:00:49.232Z,53.21
2023-02-27T06:01:39.300Z,52.97
2023-02-27T06:02:29.375Z,52.90
2023-02-27T06:03:19.449Z,53.23
2023-02-27T06:04:09.422Z,53.29
2023-02-27T06:04:59.467Z,53.11
2023-02-27T06:05:49.502Z,53.26
2023-02-27T06:06:39.646Z,53.09
2023-02-27T06:07:29.683Z,52.95
2023-02-27T06:08:19.721Z,53.01
2023-02-27T06:09:09.757Z,53.25
2023-02-27T06:09:59.816Z,52.85
2023-02-27T06:10:49.879Z,53.32
2023-02-27T06:11:39.943Z,53.43
2023-02-27T06:12:29.976Z,53.08
2023-02-27T06:13:20.104Z,52.81
2023-02-27T06:14:10.119Z,52.88
2023-02-27T06:15:00.170Z,52.77
2023-02-27T06:15:50.180Z,53.01
2023-02-27T06:16:40.367Z,52.86
2023-02-27T06:17:30.324Z,52.85
2023-02-27T06:18:20.378Z,52.80
2023-02-27T06:19:10.419Z,52.61
2023-02-27T06:20:00.454Z,52.90
2023-02-27T06:20:50.484Z,52.89
2023-02-27T06:21:40.546Z,53.12
2023-02-27T06:22:30.576Z,52.95
2023-02-27T06:23:20.664Z,52.90
2023-02-27T06:24:10.699Z,53.03
2023-02-27T06:25:00.740Z,53.14
2023-02-27T06:25:50.777Z,53.23
2023-02-27T06:26:40.880Z,53.15
2023-02-27T06:27:30.922Z,53.38
2023-02-27T06:28:20.960Z,53.05
2023-02-27T06:29:11.003Z,53.12
2023-02-27T06:30:01.154Z,53.31
2023-02-27T06:30:51.084Z,53.28
2023-02-27T06:31:41.184Z,53.26
2023-02-27T06:32:31.217Z,53.32
2023-02-27T06:33:21.306Z,53.14
2023-02-27T06:34:11.346Z,52.91
2023-02-27T06:35:01.383Z,52.93
2023-02-27T06:35:51.440Z,53.39
2023-02-27T06:36:41.523Z,53.00
2023-02-27T06:37:31.553Z,52.98
2023-02-27T06:38:21.638Z,52.74
2023-02-27T06:39:11.679Z,53.23
2023-02-27T06:40:01.720Z,53.00
2023-02-27T06:40:51.753Z,53.18
2023-02-27T06:41:41.822Z,53.25
2023-02-27T06:42:31.867Z,53.03
2023-02-27T06:43:21.896Z,53.39
2023-02-27T06:44:11.933Z,52.96
2023-02-27T06:45:02.011Z,53.06
2023-02-27T06:45:52.140Z,53.05
2023-02-27T06:46:42.290Z,53.04
2023-02-27T06:47:32.168Z,53.16
2023-02-27T06:48:22.219Z,53.36
2023-02-27T06:49:12.237Z,53.21
2023-02-27T06:50:02.279Z,53.43
2023-02-27T06:50:52.344Z,53.24
2023-02-27T06:51:43.674Z,53.21
2023-02-27T06:52:32.420Z,53.30
2023-02-27T06:53:22.510Z,53.27
2023-02-27T06:54:12.782Z,53.67
2023-02-27T06:55:02.856Z,53.43
2023-02-27T06:55:52.923Z,53.08
2023-02-27T06:56:43.232Z,53.07
2023-02-27T06:57:33.268Z,53.24
2023-02-27T06:58:23.331Z,53.03
2023-02-27T06:59:13.386Z,53.20
2023-02-27T07:00:03.426Z,52.90
2023-02-27T07:00:53.485Z,52.58
2023-02-27T07:01:43.616Z,52.65
2023-02-27T07:02:33.562Z,52.76
2023-02-27T07:03:23.662Z,52.83
2023-02-27T07:04:13.706Z,52.68
2023-02-27T07:05:07.907Z,53.07
2023-02-27T07:05:53.940Z,53.03
2023-02-27T07:07:36.466Z,53.09
2023-02-27T07:07:38.038Z,53.00
2023-02-27T07:08:24.235Z,53.22
2023-02-27T07:09:14.288Z,53.51
2023-02-27T07:10:04.362Z,53.45
2023-02-27T07:10:54.390Z,53.49
2023-02-27T07:11:44.500Z,53.63
2023-02-27T07:12:34.537Z,53.57
2023-02-27T07:13:24.572Z,53.78
2023-02-27T07:14:14.611Z,54.02
2023-02-27T07:15:04.663Z,53.74
2023-02-27T07:15:54.711Z,53.72
2023-02-27T07:16:44.768Z,53.64
2023-02-27T07:17:34.829Z,53.59
2023-02-27T07:18:24.858Z,53.55
2023-02-27T07:19:14.879Z,53.71
2023-02-27T07:20:04.922Z,53.72
2023-02-27T07:20:54.971Z,53.96
2023-02-27T07:21:45.071Z,53.97
2023-02-27T07:22:35.092Z,53.67
2023-02-27T07:23:25.139Z,53.66
2023-02-27T07:24:15.169Z,53.79
2023-02-27T07:25:05.353Z,53.70
2023-02-27T07:25:55.265Z,53.54
2023-02-27T07:26:45.326Z,53.79
2023-02-27T07:27:35.365Z,53.63
2023-02-27T07:28:25.470Z,53.67
2023-02-27T07:29:16.422Z,53.35
2023-02-27T07:30:05.551Z,53.73
2023-02-27T07:30:55.653Z,53.76
2023-02-27T07:31:45.721Z,53.68
2023-02-27T07:32:35.673Z,53.88
2023-02-27T07:33:25.782Z,53.66
2023-02-27T07:34:15.787Z,53.85
2023-02-27T07:35:05.964Z,53.71
2023-02-27T07:35:56.063Z,53.85
2023-02-27T07:36:46.060Z,53.76
2023-02-27T07:37:36.087Z,53.83
2023-02-27T07:38:26.131Z,53.81
2023-02-27T07:39:16.182Z,53.82
2023-02-27T07:40:06.246Z,53.71
2023-02-27T07:40:56.276Z,53.97
2023-02-27T07:41:46.400Z,53.88
2023-02-27T07:42:36.401Z,54.11
2023-02-27T07:43:26.438Z,53.98
2023-02-27T07:44:16.485Z,53.95
2023-02-27T07:45:06.554Z,54.23
2023-02-27T07:45:56.594Z,54.15
2023-02-27T07:46:46.677Z,54.08
2023-02-27T07:47:36.698Z,54.04
2023-02-27T07:48:26.740Z,53.97
2023-02-27T07:49:16.799Z,54.08
2023-02-27T07:50:06.863Z,53.86
2023-02-27T07:50:56.920Z,53.86
2023-02-27T07:51:47.006Z,53.79
2023-02-27T07:52:37.044Z,53.78
2023-02-27T07:53:27.085Z,53.97
2023-02-27T07:54:17.128Z,53.79
2023-02-27T07:55:07.229Z,53.59
2023-02-27T07:55:57.244Z,53.81
2023-02-27T07:56:47.321Z,54.71
2023-02-27T07:57:37.337Z,53.97
2023-02-27T07:58:27.389Z,53.36
2023-02-27T07:59:17.415Z,53.35
2023-02-27T08:00:07.501Z,53.19
2023-02-27T08:00:57.528Z,53.32
2023-02-27T08:01:47.634Z,53.35
2023-02-27T08:02:37.723Z,53.40
2023-02-27T08:03:27.748Z,53.55
2023-02-27T08:04:18.115Z,53.63
2023-02-27T08:05:08.222Z,53.65
2023-02-27T08:05:58.614Z,54.02
2023-02-27T08:06:48.240Z,53.99
2023-02-27T08:07:38.271Z,53.85
2023-02-27T08:08:28.361Z,53.78
2023-02-27T08:09:18.391Z,54.20
2023-02-27T08:10:08.452Z,53.85
2023-02-27T08:10:58.474Z,53.96
2023-02-27T08:11:49.260Z,53.89
2023-02-27T08:12:38.616Z,53.82
2023-02-27T08:13:59.187Z,53.60
2023-02-27T08:14:19.760Z,54.39
2023-02-27T08:15:08.804Z,54.32
2023-02-27T08:15:58.893Z,53.87
2023-02-27T08:16:48.977Z,53.89
2023-02-27T08:17:39.016Z,53.99
2023-02-27T08:18:29.077Z,54.31
2023-02-27T08:19:19.106Z,54.40
2023-02-27T08:20:09.281Z,54.12
2023-02-27T08:20:59.346Z,54.20
2023-02-27T08:21:49.380Z,53.73
2023-02-27T08:22:39.408Z,53.75
2023-02-27T08:23:29.513Z,54.19
2023-02-27T08:24:19.488Z,54.62
2023-02-27T08:25:09.534Z,54.53
2023-02-27T08:25:59.562Z,54.54
2023-02-27T08:26:49.671Z,54.56
2023-02-27T08:27:39.696Z,54.41
2023-02-27T08:28:29.735Z,54.28
2023-02-27T08:29:19.774Z,53.96
2023-02-27T08:30:09.846Z,54.18
2023-02-27T08:30:59.906Z,54.25
2023-02-27T08:31:50.237Z,54.31
2023-02-27T08:32:40.082Z,54.64
2023-02-27T08:33:30.111Z,54.73
2023-02-27T08:34:20.128Z,54.68
2023-02-27T08:35:10.199Z,54.63
2023-02-27T08:36:00.339Z,54.56
2023-02-27T08:36:50.319Z,54.59
2023-02-27T08:37:40.349Z,54.51
2023-02-27T08:38:30.379Z,54.27
2023-02-27T08:39:20.417Z,54.51
2023-02-27T08:40:10.451Z,54.57
2023-02-27T08:41:00.527Z,54.61
2023-02-27T08:41:50.591Z,54.66
2023-02-27T08:42:40.627Z,54.56
2023-02-27T08:43:30.707Z,54.61
2023-02-27T08:44:20.748Z,54.55
2023-02-27T08:45:10.791Z,54.38
2023-02-27T08:46:00.841Z,54.35
2023-02-27T08:46:50.918Z,54.49
2023-02-27T08:47:40.959Z,54.50
2023-02-27T08:48:30.988Z,54.55
2023-02-27T08:49:21.752Z,54.59
2023-02-27T08:50:11.092Z,54.49
2023-02-27T08:51:01.100Z,54.51
2023-02-27T08:51:51.181Z,54.58
2023-02-27T08:52:41.235Z,54.51
2023-02-27T08:53:31.295Z,54.53
2023-02-27T08:54:21.329Z,54.60
2023-02-27T08:55:11.406Z,54.63
2023-02-27T08:56:01.465Z,54.52
2023-02-27T08:56:51.557Z,54.54
2023-02-27T08:57:41.569Z,54.52
2023-02-27T08:58:31.624Z,54.50
2023-02-27T08:59:21.687Z,54.49
2023-02-27T09:00:11.773Z,54.48
2023-02-27T09:01:01.902Z,54.43
2023-02-27T09:01:52.081Z,54.19
2023-02-27T09:02:42.145Z,54.02
2023-02-27T09:03:32.187Z,54.28
2023-02-27T09:04:22.226Z,54.15
2023-02-27T09:05:12.254Z,53.67
2023-02-27T09:06:02.349Z,53.83
2023-02-27T09:06:52.410Z,53.68
2023-02-27T09:07:42.515Z,53.42
2023-02-27T09:08:32.543Z,53.74
2023-02-27T09:09:22.546Z,54.25
2023-02-27T09:10:12.623Z,54.40
2023-02-27T09:11:02.915Z,54.51
2023-02-27T09:11:53.013Z,54.44
2023-02-27T09:12:43.050Z,54.32
2023-02-27T09:13:33.391Z,54.15
2023-02-27T09:14:23.418Z,54.16
2023-02-27T09:15:13.505Z,54.42
2023-02-27T09:16:03.527Z,54.46
2023-02-27T09:16:53.719Z,54.55
2023-02-27T09:17:43.673Z,54.58
2023-02-27T09:18:33.786Z,54.53
2023-02-27T09:19:23.776Z,54.48
2023-02-27T09:20:13.846Z,54.49
2023-02-27T09:21:03.917Z,54.57
2023-02-27T09:21:54.017Z,54.51
2023-02-27T09:22:44.216Z,54.48
2023-02-27T09:23:34.287Z,54.52
2023-02-27T09:24:24.376Z,54.55
2023-02-27T09:25:14.646Z,54.37
2023-02-27T09:26:04.670Z,54.44
2023-02-27T09:26:54.779Z,54.33
2023-02-27T09:27:44.822Z,54.38
2023-02-27T09:28:34.856Z,54.22
2023-02-27T09:29:24.887Z,53.76
2023-02-27T09:30:14.969Z,53.80
2023-02-27T09:31:05.004Z,54.15
2023-02-27T09:31:55.189Z,54.35
2023-02-27T09:32:45.248Z,54.39
2023-02-27T09:33:35.185Z,54.33
2023-02-27T09:34:25.207Z,54.29
2023-02-27T09:35:15.289Z,53.95
2023-02-27T09:36:05.405Z,54.00
2023-02-27T09:36:55.403Z,53.44
2023-02-27T09:37:45.435Z,53.69
2023-02-27T09:38:35.513Z,53.48
2023-02-27T09:39:25.544Z,54.04
2023-02-27T09:40:15.643Z,53.96
2023-02-27T09:41:05.909Z,54.19
2023-02-27T09:41:56.021Z,54.03
2023-02-27T09:42:46.112Z,54.27
2023-02-27T09:43:36.087Z,54.37
2023-02-27T09:44:39.799Z,54.39
2023-02-27T09:45:17.192Z,54.49
2023-02-27T09:46:06.271Z,54.46
2023-02-27T09:46:56.278Z,54.42
2023-02-27T09:47:46.304Z,54.46
2023-02-27T09:48:36.372Z,54.48
2023-02-27T09:49:26.450Z,54.40
2023-02-27T09:50:16.481Z,53.97
2023-02-27T09:51:06.730Z,54.19
2023-02-27T09:51:56.792Z,54.25
2023-02-27T09:52:46.840Z,54.31
2023-02-27T09:53:36.867Z,54.31
2023-02-27T09:54:26.947Z,54.28
2023-02-27T09:55:16.993Z,54.23
2023-02-27T09:56:07.064Z,54.20
2023-02-27T09:56:57.106Z,54.25
2023-02-27T09:57:47.130Z,54.24
2023-02-27T09:58:37.152Z,54.35
2023-02-27T09:59:27.206Z,54.32
2023-02-27T10:00:17.240Z,54.37
2023-02-27T10:01:07.327Z,54.32
2023-02-27T10:01:57.413Z,54.35
2023-02-27T10:02:47.449Z,54.35
2023-02-27T10:03:37.550Z,54.31
2023-02-27T10:04:27.564Z,54.35
2023-02-27T10:05:17.597Z,54.36
2023-02-27T10:06:07.677Z,54.36
2023-02-27T10:06:57.720Z,54.33
2023-02-27T10:07:47.768Z,54.34
2023-02-27T10:08:37.800Z,53.86
2023-02-27T10:09:27.870Z,53.75
2023-02-27T10:10:17.906Z,53.89
2023-02-27T10:11:08.000Z,54.12
2023-02-27T10:11:58.066Z,54.15
2023-02-27T10:12:48.088Z,54.15
2023-02-27T10:13:38.128Z,54.10
2023-02-27T10:14:28.205Z,54.18
2023-02-27T10:15:18.235Z,54.18
2023-02-27T10:16:08.284Z,54.17
2023-02-27T10:16:58.414Z,54.22
2023-02-27T10:17:48.429Z,54.25
2023-02-27T10:18:38.420Z,54.05
2023-02-27T10:19:28.463Z,53.83
2023-02-27T10:20:18.494Z,54.01
2023-02-27T10:21:08.540Z,54.14
2023-02-27T10:21:58.598Z,54.13
2023-02-27T10:22:48.635Z,54.14
2023-02-27T10:23:38.661Z,53.96
2023-02-27T10:24:28.794Z,53.50
2023-02-27T10:25:30.790Z,53.59
2023-02-27T10:26:09.888Z,54.07
2023-02-27T10:26:58.953Z,54.13
2023-02-27T10:27:48.995Z,54.18
2023-02-27T10:28:39.049Z,54.19
2023-02-27T10:29:29.112Z,54.23
2023-02-27T10:30:28.291Z,54.23
2023-02-27T10:31:10.346Z,54.36
2023-02-27T10:31:59.384Z,54.33
2023-02-27T10:32:49.394Z,54.32
2023-02-27T10:33:39.464Z,54.31
2023-02-27T10:34:29.527Z,54.31
2023-02-27T10:35:19.600Z,54.30
2023-02-27T10:36:10.318Z,54.33
2023-02-27T10:36:59.892Z,54.30
2023-02-27T10:37:49.923Z,54.30
2023-02-27T10:38:39.959Z,54.31
2023-02-27T10:39:29.998Z,54.31
2023-02-27T10:40:20.041Z,54.28
2023-02-27T10:41:10.068Z,54.29
2023-02-27T10:42:00.159Z,54.34
2023-02-27T10:42:50.191Z,54.32
2023-02-27T10:43:40.291Z,54.32
2023-02-27T10:44:30.306Z,54.28